sensor_id;sensor_type;location;lat;lon;timestamp;temperature;humidity
49236;DHT22;35067;48.134;8.378;2023-04-15T00:00:19;1.50;99.90
49236;DHT22;35067;48.134;8.378;2023-04-15T00:01:41;1.50;99.90
49236;DHT22;35067;48.134;8.378;2023-04-15T00:03:03;1.40;99.90
49236;DHT22;35067;48.134;8.378;2023-04-15T00:04:26;1.40;99.90
49236;DHT22;35067;48.134;8.378;2023-04-15T00:05:47;1.30;99.90
49236;DHT22;35067;48.134;8.378;2023-04-15T00:07:09;1.30;99.90
49236;DHT22;35067;48.134;8.378;2023-04-15T00:08:33;1.30;99.90
49236;DHT22;35067;48.134;8.378;2023-04-15T00:09:54;1.30;99.90
49236;DHT22;35067;48.134;8.378;2023-04-15T00:11:18;1.30;99.90
49236;DHT22;35067;48.134;8.378;2023-04-15T00:12:42;1.30;99.90
49236;DHT22;35067;48.134;8.378;2023-04-15T00:14:03;1.20;99.90
49236;DHT22;35067;48.134;8.378;2023-04-15T00:15:25;1.20;99.90
49236;DHT22;35067;48.134;8.378;2023-04-15T00:16:47;1.30;99.90
49236;DHT22;35067;48.134;8.378;2023-04-15T00:18:15;1.30;99.90
49236;DHT22;35067;48.134;8.378;2023-04-15T00:19:36;1.20;99.90
49236;DHT22;35067;48.134;8.378;2023-04-15T00:20:57;1.10;99.90
49236;DHT22;35067;48.134;8.378;2023-04-15T00:22:20;1.20;99.90
49236;DHT22;35067;48.134;8.378;2023-04-15T00:23:42;1.10;99.90
49236;DHT22;35067;48.134;8.378;2023-04-15T00:25:04;1.70;99.90
49236;DHT22;35067;48.134;8.378;2023-04-15T00:26:25;1.20;99.90
49236;DHT22;35067;48.134;8.378;2023-04-15T00:27:46;1.20;99.90
49236;DHT22;35067;48.134;8.378;2023-04-15T00:29:09;1.10;99.90
49236;DHT22;35067;48.134;8.378;2023-04-15T00:30:30;1.10;99.90
49236;DHT22;35067;48.134;8.378;2023-04-15T00:31:51;1.10;99.90
49236;DHT22;35067;48.134;8.378;2023-04-15T00:33:13;1.10;99.90
49236;DHT22;35067;48.134;8.378;2023-04-15T00:34:36;1.00;99.90
49236;DHT22;35067;48.134;8.378;2023-04-15T00:35:57;1.00;99.90
49236;DHT22;35067;48.134;8.378;2023-04-15T00:37:18;1.00;99.90
49236;DHT22;35067;48.134;8.378;2023-04-15T00:38:39;1.00;99.90
49236;DHT22;35067;48.134;8.378;2023-04-15T00:40:01;0.90;99.90
49236;DHT22;35067;48.134;8.378;2023-04-15T00:41:25;0.90;99.90
49236;DHT22;35067;48.134;8.378;2023-04-15T00:42:46;1.00;99.90
49236;DHT22;35067;48.134;8.378;2023-04-15T00:44:08;1.00;99.90
49236;DHT22;35067;48.134;8.378;2023-04-15T00:45:29;1.00;99.90
49236;DHT22;35067;48.134;8.378;2023-04-15T00:46:50;1.10;99.90
49236;DHT22;35067;48.134;8.378;2023-04-15T00:48:15;1.20;99.90
49236;DHT22;35067;48.134;8.378;2023-04-15T00:49:36;1.20;99.90
49236;DHT22;35067;48.134;8.378;2023-04-15T00:50:57;1.20;99.90
49236;DHT22;35067;48.134;8.378;2023-04-15T00:52:18;1.20;99.90
49236;DHT22;35067;48.134;8.378;2023-04-15T00:53:39;1.10;99.90
49236;DHT22;35067;48.134;8.378;2023-04-15T00:55:01;1.10;99.90
49236;DHT22;35067;48.134;8.378;2023-04-15T00:56:22;1.10;99.90
49236;DHT22;35067;48.134;8.378;2023-04-15T00:57:44;1.10;99.90
49236;DHT22;35067;48.134;8.378;2023-04-15T00:59:05;1.10;99.90
49236;DHT22;35067;48.134;8.378;2023-04-15T01:00:28;1.00;99.90
49236;DHT22;35067;48.134;8.378;2023-04-15T01:01:50;1.00;99.90
49236;DHT22;35067;48.134;8.378;2023-04-15T01:03:11;0.90;99.90
49236;DHT22;35067;48.134;8.378;2023-04-15T01:04:33;1.00;99.90
49236;DHT22;35067;48.134;8.378;2023-04-15T01:05:55;1.00;99.90
49236;DHT22;35067;48.134;8.378;2023-04-15T01:07:19;0.90;99.90
49236;DHT22;35067;48.134;8.378;2023-04-15T01:08:41;0.90;99.90
49236;DHT22;35067;48.134;8.378;2023-04-15T01:10:03;0.90;99.90
49236;DHT22;35067;48.134;8.378;2023-04-15T01:11:25;0.90;99.90
49236;DHT22;35067;48.134;8.378;2023-04-15T01:12:47;0.90;99.90
49236;DHT22;35067;48.134;8.378;2023-04-15T01:14:08;0.80;99.90
49236;DHT22;35067;48.134;8.378;2023-04-15T01:15:30;0.80;99.90
49236;DHT22;35067;48.134;8.378;2023-04-15T01:16:52;0.80;99.90
49236;DHT22;35067;48.134;8.378;2023-04-15T01:18:13;0.80;99.90
49236;DHT22;35067;48.134;8.378;2023-04-15T01:19:36;0.80;99.90
49236;DHT22;35067;48.134;8.378;2023-04-15T01:21:00;0.70;99.90
49236;DHT22;35067;48.134;8.378;2023-04-15T01:22:23;0.70;99.90
49236;DHT22;35067;48.134;8.378;2023-04-15T01:23:48;0.60;99.90
49236;DHT22;35067;48.134;8.378;2023-04-15T01:25:12;0.60;99.90
49236;DHT22;35067;48.134;8.378;2023-04-15T01:26:38;0.60;99.90
49236;DHT22;35067;48.134;8.378;2023-04-15T01:28:00;0.60;99.90
49236;DHT22;35067;48.134;8.378;2023-04-15T01:29:21;0.60;99.90
49236;DHT22;35067;48.134;8.378;2023-04-15T01:30:42;0.50;99.90
49236;DHT22;35067;48.134;8.378;2023-04-15T01:32:04;0.40;99.90
49236;DHT22;35067;48.134;8.378;2023-04-15T01:33:26;0.50;99.90
49236;DHT22;35067;48.134;8.378;2023-04-15T01:34:47;0.40;99.90
49236;DHT22;35067;48.134;8.378;2023-04-15T01:36:09;0.40;99.90
49236;DHT22;35067;48.134;8.378;2023-04-15T01:37:32;0.40;99.90
49236;DHT22;35067;48.134;8.378;2023-04-15T01:38:54;0.50;99.90
49236;DHT22;35067;48.134;8.378;2023-04-15T01:40:16;0.50;99.90
49236;DHT22;35067;48.134;8.378;2023-04-15T01:41:38;0.40;99.90
49236;DHT22;35067;48.134;8.378;2023-04-15T01:43:01;0.40;99.90
49236;DHT22;35067;48.134;8.378;2023-04-15T01:44:25;0.40;99.90
49236;DHT22;35067;48.134;8.378;2023-04-15T01:45:47;0.40;99.90
49236;DHT22;35067;48.134;8.378;2023-04-15T01:47:09;0.30;99.90
49236;DHT22;35067;48.134;8.378;2023-04-15T01:48:30;0.30;99.90
49236;DHT22;35067;48.134;8.378;2023-04-15T01:49:52;0.40;99.90
49236;DHT22;35067;48.134;8.378;2023-04-15T01:51:13;0.40;99.90
49236;DHT22;35067;48.134;8.378;2023-04-15T01:52:35;0.50;99.90
49236;DHT22;35067;48.134;8.378;2023-04-15T01:53:56;0.40;99.90
49236;DHT22;35067;48.134;8.378;2023-04-15T01:55:18;0.40;99.90
49236;DHT22;35067;48.134;8.378;2023-04-15T01:56:39;0.40;99.90
49236;DHT22;35067;48.134;8.378;2023-04-15T01:58:02;0.50;99.90
49236;DHT22;35067;48.134;8.378;2023-04-15T01:59:23;0.40;99.90
49236;DHT22;35067;48.134;8.378;2023-04-15T02:00:48;0.50;99.90
49236;DHT22;35067;48.134;8.378;2023-04-15T02:02:09;0.40;99.90
49236;DHT22;35067;48.134;8.378;2023-04-15T02:03:30;0.40;99.90
49236;DHT22;35067;48.134;8.378;2023-04-15T02:04:52;0.40;99.90
49236;DHT22;35067;48.134;8.378;2023-04-15T02:06:13;0.40;99.90
49236;DHT22;35067;48.134;8.378;2023-04-15T02:07:35;0.30;99.90
49236;DHT22;35067;48.134;8.378;2023-04-15T02:08:58;0.40;99.90
49236;DHT22;35067;48.134;8.378;2023-04-15T02:10:21;0.30;99.90
49236;DHT22;35067;48.134;8.378;2023-04-15T02:11:42;0.40;99.90
49236;DHT22;35067;48.134;8.378;2023-04-15T02:13:04;0.40;99.90
49236;DHT22;35067;48.134;8.378;2023-04-15T02:14:27;0.30;99.90
49236;DHT22;35067;48.134;8.378;2023-04-15T02:15:48;0.30;99.90
49236;DHT22;35067;48.134;8.378;2023-04-15T02:17:10;0.40;99.90
49236;DHT22;35067;48.134;8.378;2023-04-15T02:18:31;0.30;99.90
49236;DHT22;35067;48.134;8.378;2023-04-15T02:19:52;0.30;99.90
49236;DHT22;35067;48.134;8.378;2023-04-15T02:21:17;0.30;99.90
49236;DHT22;35067;48.134;8.378;2023-04-15T02:22:38;0.30;99.90
49236;DHT22;35067;48.134;8.378;2023-04-15T02:23:59;0.30;99.90
49236;DHT22;35067;48.134;8.378;2023-04-15T02:25:23;0.30;99.90
49236;DHT22;35067;48.134;8.378;2023-04-15T02:26:44;0.20;99.90
49236;DHT22;35067;48.134;8.378;2023-04-15T02:28:08;0.20;99.90
49236;DHT22;35067;48.134;8.378;2023-04-15T02:29:30;0.20;99.90
49236;DHT22;35067;48.134;8.378;2023-04-15T02:30:54;0.20;99.90
49236;DHT22;35067;48.134;8.378;2023-04-15T02:32:17;0.20;99.90
49236;DHT22;35067;48.134;8.378;2023-04-15T02:33:38;0.10;99.90
49236;DHT22;35067;48.134;8.378;2023-04-15T02:35:07;0.20;99.90
49236;DHT22;35067;48.134;8.378;2023-04-15T02:36:29;0.20;99.90
49236;DHT22;35067;48.134;8.378;2023-04-15T02:37:51;0.20;99.90
49236;DHT22;35067;48.134;8.378;2023-04-15T02:39:13;0.20;99.90
49236;DHT22;35067;48.134;8.378;2023-04-15T02:40:38;0.20;99.90
49236;DHT22;35067;48.134;8.378;2023-04-15T02:42:00;0.20;99.90
49236;DHT22;35067;48.134;8.378;2023-04-15T02:43:23;0.20;99.90
49236;DHT22;35067;48.134;8.378;2023-04-15T02:44:45;0.30;99.90
49236;DHT22;35067;48.134;8.378;2023-04-15T02:46:06;0.30;99.90
49236;DHT22;35067;48.134;8.378;2023-04-15T02:47:27;0.20;99.90
49236;DHT22;35067;48.134;8.378;2023-04-15T02:48:49;0.30;99.90
49236;DHT22;35067;48.134;8.378;2023-04-15T02:50:13;0.30;99.90
49236;DHT22;35067;48.134;8.378;2023-04-15T02:51:34;0.30;99.90
49236;DHT22;35067;48.134;8.378;2023-04-15T02:52:55;0.30;99.90
49236;DHT22;35067;48.134;8.378;2023-04-15T02:54:18;0.30;99.90
49236;DHT22;35067;48.134;8.378;2023-04-15T02:55:40;0.30;99.90
49236;DHT22;35067;48.134;8.378;2023-04-15T02:57:03;0.30;99.90
49236;DHT22;35067;48.134;8.378;2023-04-15T02:58:26;0.30;99.90
49236;DHT22;35067;48.134;8.378;2023-04-15T02:59:47;0.40;99.90
49236;DHT22;35067;48.134;8.378;2023-04-15T03:01:08;0.40;99.90
49236;DHT22;35067;48.134;8.378;2023-04-15T03:02:33;0.50;99.90
49236;DHT22;35067;48.134;8.378;2023-04-15T03:03:55;0.50;99.90
49236;DHT22;35067;48.134;8.378;2023-04-15T03:05:16;0.60;99.90
49236;DHT22;35067;48.134;8.378;2023-04-15T03:06:39;0.60;99.90
49236;DHT22;35067;48.134;8.378;2023-04-15T03:08:00;0.60;99.90
49236;DHT22;35067;48.134;8.378;2023-04-15T03:09:22;0.60;99.90
49236;DHT22;35067;48.134;8.378;2023-04-15T03:10:43;0.60;99.90
49236;DHT22;35067;48.134;8.378;2023-04-15T03:12:04;0.70;99.90
49236;DHT22;35067;48.134;8.378;2023-04-15T03:13:26;0.60;99.90
49236;DHT22;35067;48.134;8.378;2023-04-15T03:14:47;0.60;99.90
49236;DHT22;35067;48.134;8.378;2023-04-15T03:16:08;0.70;99.90
49236;DHT22;35067;48.134;8.378;2023-04-15T03:17:29;0.70;99.90
49236;DHT22;35067;48.134;8.378;2023-04-15T03:18:51;0.60;99.90
49236;DHT22;35067;48.134;8.378;2023-04-15T03:20:12;0.60;99.90
49236;DHT22;35067;48.134;8.378;2023-04-15T03:21:33;0.60;99.90
49236;DHT22;35067;48.134;8.378;2023-04-15T03:22:55;0.70;99.90
49236;DHT22;35067;48.134;8.378;2023-04-15T03:24:17;0.60;99.90
49236;DHT22;35067;48.134;8.378;2023-04-15T03:25:38;0.60;99.90
49236;DHT22;35067;48.134;8.378;2023-04-15T03:27:02;0.60;99.90
49236;DHT22;35067;48.134;8.378;2023-04-15T03:28:23;0.60;99.90
49236;DHT22;35067;48.134;8.378;2023-04-15T03:29:44;0.60;99.90
49236;DHT22;35067;48.134;8.378;2023-04-15T03:31:06;0.60;99.90
49236;DHT22;35067;48.134;8.378;2023-04-15T03:32:27;0.60;99.90
49236;DHT22;35067;48.134;8.378;2023-04-15T03:33:51;0.50;99.90
49236;DHT22;35067;48.134;8.378;2023-04-15T03:35:12;0.60;99.90
49236;DHT22;35067;48.134;8.378;2023-04-15T03:36:33;0.60;99.90
49236;DHT22;35067;48.134;8.378;2023-04-15T03:37:54;0.60;99.90
49236;DHT22;35067;48.134;8.378;2023-04-15T03:39:15;0.60;99.90
49236;DHT22;35067;48.134;8.378;2023-04-15T03:40:39;0.60;99.90
49236;DHT22;35067;48.134;8.378;2023-04-15T03:42:01;0.60;99.90
49236;DHT22;35067;48.134;8.378;2023-04-15T03:43:23;0.60;99.90
49236;DHT22;35067;48.134;8.378;2023-04-15T03:44:44;0.60;99.90
49236;DHT22;35067;48.134;8.378;2023-04-15T03:46:06;0.70;99.90
49236;DHT22;35067;48.134;8.378;2023-04-15T03:47:27;0.70;99.90
49236;DHT22;35067;48.134;8.378;2023-04-15T03:48:48;0.80;99.90
49236;DHT22;35067;48.134;8.378;2023-04-15T03:50:09;0.90;99.90
49236;DHT22;35067;48.134;8.378;2023-04-15T03:51:31;0.90;99.90
49236;DHT22;35067;48.134;8.378;2023-04-15T03:52:52;0.90;99.90
49236;DHT22;35067;48.134;8.378;2023-04-15T03:54:13;0.80;99.90
49236;DHT22;35067;48.134;8.378;2023-04-15T03:55:35;0.90;99.90
49236;DHT22;35067;48.134;8.378;2023-04-15T03:56:56;1.00;99.90
49236;DHT22;35067;48.134;8.378;2023-04-15T03:58:19;1.00;99.90
49236;DHT22;35067;48.134;8.378;2023-04-15T03:59:40;1.00;99.90
49236;DHT22;35067;48.134;8.378;2023-04-15T04:01:01;1.00;99.90
49236;DHT22;35067;48.134;8.378;2023-04-15T04:02:22;1.10;99.90
49236;DHT22;35067;48.134;8.378;2023-04-15T04:03:43;1.20;99.90
49236;DHT22;35067;48.134;8.378;2023-04-15T04:05:06;1.20;99.90
49236;DHT22;35067;48.134;8.378;2023-04-15T04:06:27;1.20;99.90
49236;DHT22;35067;48.134;8.378;2023-04-15T04:07:48;1.20;99.90
49236;DHT22;35067;48.134;8.378;2023-04-15T04:09:10;1.30;99.90
49236;DHT22;35067;48.134;8.378;2023-04-15T04:10:31;1.20;99.90
49236;DHT22;35067;48.134;8.378;2023-04-15T04:11:53;1.30;99.90
49236;DHT22;35067;48.134;8.378;2023-04-15T04:13:14;1.30;99.90
49236;DHT22;35067;48.134;8.378;2023-04-15T04:14:36;1.40;99.90
49236;DHT22;35067;48.134;8.378;2023-04-15T04:15:57;1.30;99.90
49236;DHT22;35067;48.134;8.378;2023-04-15T04:17:18;1.40;99.90
49236;DHT22;35067;48.134;8.378;2023-04-15T04:18:39;1.40;99.90
49236;DHT22;35067;48.134;8.378;2023-04-15T04:20:00;1.50;99.90
49236;DHT22;35067;48.134;8.378;2023-04-15T04:21:22;1.50;99.90
49236;DHT22;35067;48.134;8.378;2023-04-15T04:22:43;1.50;99.90
49236;DHT22;35067;48.134;8.378;2023-04-15T04:24:06;1.60;99.90
49236;DHT22;35067;48.134;8.378;2023-04-15T04:25:28;1.70;99.90
49236;DHT22;35067;48.134;8.378;2023-04-15T04:26:50;1.60;99.90
49236;DHT22;35067;48.134;8.378;2023-04-15T04:28:12;1.60;99.90
49236;DHT22;35067;48.134;8.378;2023-04-15T04:29:33;1.60;99.90
49236;DHT22;35067;48.134;8.378;2023-04-15T04:30:55;1.70;99.90
49236;DHT22;35067;48.134;8.378;2023-04-15T04:32:16;1.60;99.90
49236;DHT22;35067;48.134;8.378;2023-04-15T04:33:37;1.60;99.90
49236;DHT22;35067;48.134;8.378;2023-04-15T04:34:58;1.50;99.90
49236;DHT22;35067;48.134;8.378;2023-04-15T04:36:19;1.50;99.90
49236;DHT22;35067;48.134;8.378;2023-04-15T04:37:40;1.50;99.90
49236;DHT22;35067;48.134;8.378;2023-04-15T04:39:01;1.60;99.90
49236;DHT22;35067;48.134;8.378;2023-04-15T04:40:23;1.70;99.90
49236;DHT22;35067;48.134;8.378;2023-04-15T04:41:44;1.70;99.90
49236;DHT22;35067;48.134;8.378;2023-04-15T04:43:07;1.70;99.90
49236;DHT22;35067;48.134;8.378;2023-04-15T04:44:29;1.60;99.90
49236;DHT22;35067;48.134;8.378;2023-04-15T04:45:50;1.70;99.90
49236;DHT22;35067;48.134;8.378;2023-04-15T04:47:11;1.80;99.90
49236;DHT22;35067;48.134;8.378;2023-04-15T04:48:34;1.70;99.90
49236;DHT22;35067;48.134;8.378;2023-04-15T04:49:56;1.80;99.90
49236;DHT22;35067;48.134;8.378;2023-04-15T04:51:18;1.80;99.90
49236;DHT22;35067;48.134;8.378;2023-04-15T04:52:40;1.90;99.90
49236;DHT22;35067;48.134;8.378;2023-04-15T04:54:03;1.90;99.90
49236;DHT22;35067;48.134;8.378;2023-04-15T04:55:24;1.90;99.90
49236;DHT22;35067;48.134;8.378;2023-04-15T04:56:45;2.00;99.90
49236;DHT22;35067;48.134;8.378;2023-04-15T04:58:07;2.00;99.90
49236;DHT22;35067;48.134;8.378;2023-04-15T04:59:28;2.00;99.90
49236;DHT22;35067;48.134;8.378;2023-04-15T05:00:49;2.00;99.90
49236;DHT22;35067;48.134;8.378;2023-04-15T05:02:12;2.10;99.90
49236;DHT22;35067;48.134;8.378;2023-04-15T05:03:33;2.20;99.90
49236;DHT22;35067;48.134;8.378;2023-04-15T05:04:54;2.20;99.90
49236;DHT22;35067;48.134;8.378;2023-04-15T05:06:16;2.20;99.90
49236;DHT22;35067;48.134;8.378;2023-04-15T05:07:38;2.20;99.90
49236;DHT22;35067;48.134;8.378;2023-04-15T05:08:59;2.30;99.90
49236;DHT22;35067;48.134;8.378;2023-04-15T05:10:20;2.40;99.90
49236;DHT22;35067;48.134;8.378;2023-04-15T05:11:41;2.40;99.90
49236;DHT22;35067;48.134;8.378;2023-04-15T05:13:03;2.50;99.90
49236;DHT22;35067;48.134;8.378;2023-04-15T05:14:25;2.40;99.90
49236;DHT22;35067;48.134;8.378;2023-04-15T05:15:46;2.40;99.90
49236;DHT22;35067;48.134;8.378;2023-04-15T05:17:07;2.40;99.90
49236;DHT22;35067;48.134;8.378;2023-04-15T05:18:29;2.40;99.90
49236;DHT22;35067;48.134;8.378;2023-04-15T05:19:50;2.50;99.90
49236;DHT22;35067;48.134;8.378;2023-04-15T05:21:11;2.40;99.90
49236;DHT22;35067;48.134;8.378;2023-04-15T05:22:32;2.50;99.90
49236;DHT22;35067;48.134;8.378;2023-04-15T05:23:54;2.50;99.90
49236;DHT22;35067;48.134;8.378;2023-04-15T05:25:15;2.60;99.90
49236;DHT22;35067;48.134;8.378;2023-04-15T05:26:36;2.60;99.90
49236;DHT22;35067;48.134;8.378;2023-04-15T05:27:57;2.60;99.90
49236;DHT22;35067;48.134;8.378;2023-04-15T05:29:19;2.70;99.90
49236;DHT22;35067;48.134;8.378;2023-04-15T05:30:40;2.80;99.90
49236;DHT22;35067;48.134;8.378;2023-04-15T05:32:02;2.80;99.90
49236;DHT22;35067;48.134;8.378;2023-04-15T05:33:23;2.80;99.90
49236;DHT22;35067;48.134;8.378;2023-04-15T05:34:44;2.80;99.90
49236;DHT22;35067;48.134;8.378;2023-04-15T05:36:05;2.80;99.90
49236;DHT22;35067;48.134;8.378;2023-04-15T05:37:27;2.80;99.90
49236;DHT22;35067;48.134;8.378;2023-04-15T05:38:48;2.80;99.90
49236;DHT22;35067;48.134;8.378;2023-04-15T05:40:09;2.90;99.90
49236;DHT22;35067;48.134;8.378;2023-04-15T05:41:30;3.00;99.90
49236;DHT22;35067;48.134;8.378;2023-04-15T05:42:51;3.00;99.90
49236;DHT22;35067;48.134;8.378;2023-04-15T05:44:13;3.00;99.90
49236;DHT22;35067;48.134;8.378;2023-04-15T05:45:34;3.10;99.90
49236;DHT22;35067;48.134;8.378;2023-04-15T05:46:55;3.20;99.90
49236;DHT22;35067;48.134;8.378;2023-04-15T05:48:16;3.20;99.90
49236;DHT22;35067;48.134;8.378;2023-04-15T05:49:37;3.20;99.90
49236;DHT22;35067;48.134;8.378;2023-04-15T05:50:58;3.30;99.90
49236;DHT22;35067;48.134;8.378;2023-04-15T05:52:21;3.30;99.90
49236;DHT22;35067;48.134;8.378;2023-04-15T05:53:42;3.30;99.90
49236;DHT22;35067;48.134;8.378;2023-04-15T05:55:05;3.30;99.90
49236;DHT22;35067;48.134;8.378;2023-04-15T05:56:26;3.40;99.90
49236;DHT22;35067;48.134;8.378;2023-04-15T05:57:47;3.40;99.90
49236;DHT22;35067;48.134;8.378;2023-04-15T05:59:08;3.50;99.90
49236;DHT22;35067;48.134;8.378;2023-04-15T06:00:31;3.50;99.90
49236;DHT22;35067;48.134;8.378;2023-04-15T06:01:52;3.60;99.90
49236;DHT22;35067;48.134;8.378;2023-04-15T06:03:13;3.70;99.90
49236;DHT22;35067;48.134;8.378;2023-04-15T06:04:35;3.80;99.90
49236;DHT22;35067;48.134;8.378;2023-04-15T06:05:56;3.90;99.90
49236;DHT22;35067;48.134;8.378;2023-04-15T06:07:17;3.90;99.90
49236;DHT22;35067;48.134;8.378;2023-04-15T06:08:38;4.00;99.90
49236;DHT22;35067;48.134;8.378;2023-04-15T06:09:59;4.10;99.90
49236;DHT22;35067;48.134;8.378;2023-04-15T06:11:20;4.20;99.90
49236;DHT22;35067;48.134;8.378;2023-04-15T06:12:41;4.20;99.90
49236;DHT22;35067;48.134;8.378;2023-04-15T06:14:02;4.30;99.90
49236;DHT22;35067;48.134;8.378;2023-04-15T06:15:23;4.40;99.90
49236;DHT22;35067;48.134;8.378;2023-04-15T06:16:45;4.50;99.90
49236;DHT22;35067;48.134;8.378;2023-04-15T06:18:06;4.70;99.90
49236;DHT22;35067;48.134;8.378;2023-04-15T06:19:27;4.70;99.90
49236;DHT22;35067;48.134;8.378;2023-04-15T06:20:49;4.80;99.90
49236;DHT22;35067;48.134;8.378;2023-04-15T06:22:10;4.80;99.90
49236;DHT22;35067;48.134;8.378;2023-04-15T06:23:34;4.80;99.90
49236;DHT22;35067;48.134;8.378;2023-04-15T06:24:56;4.90;99.90
49236;DHT22;35067;48.134;8.378;2023-04-15T06:26:17;5.00;99.90
49236;DHT22;35067;48.134;8.378;2023-04-15T06:27:38;5.10;99.90
49236;DHT22;35067;48.134;8.378;2023-04-15T06:28:59;5.20;99.90
49236;DHT22;35067;48.134;8.378;2023-04-15T06:30:20;5.30;99.90
49236;DHT22;35067;48.134;8.378;2023-04-15T06:31:42;5.40;99.90
49236;DHT22;35067;48.134;8.378;2023-04-15T06:33:03;5.40;99.90
49236;DHT22;35067;48.134;8.378;2023-04-15T06:34:26;5.50;99.70
49236;DHT22;35067;48.134;8.378;2023-04-15T06:35:47;5.50;98.40
49236;DHT22;35067;48.134;8.378;2023-04-15T06:37:09;5.60;99.60
49236;DHT22;35067;48.134;8.378;2023-04-15T06:38:35;5.60;99.90
49236;DHT22;35067;48.134;8.378;2023-04-15T06:39:56;5.70;99.90
49236;DHT22;35067;48.134;8.378;2023-04-15T06:41:17;5.80;99.90
49236;DHT22;35067;48.134;8.378;2023-04-15T06:42:38;5.80;99.70
49236;DHT22;35067;48.134;8.378;2023-04-15T06:44:00;6.00;99.90
49236;DHT22;35067;48.134;8.378;2023-04-15T06:45:21;6.10;99.40
49236;DHT22;35067;48.134;8.378;2023-04-15T06:46:42;6.30;98.80
49236;DHT22;35067;48.134;8.378;2023-04-15T06:48:04;6.40;96.00
49236;DHT22;35067;48.134;8.378;2023-04-15T06:49:25;6.40;98.00
49236;DHT22;35067;48.134;8.378;2023-04-15T06:50:46;6.50;99.10
49236;DHT22;35067;48.134;8.378;2023-04-15T06:52:09;6.70;99.40
49236;DHT22;35067;48.134;8.378;2023-04-15T06:53:30;6.80;97.80
49236;DHT22;35067;48.134;8.378;2023-04-15T06:54:52;7.00;96.90
49236;DHT22;35067;48.134;8.378;2023-04-15T06:56:13;7.20;97.60
49236;DHT22;35067;48.134;8.378;2023-04-15T06:57:34;7.30;98.00
49236;DHT22;35067;48.134;8.378;2023-04-15T06:58:55;7.50;96.90
49236;DHT22;35067;48.134;8.378;2023-04-15T07:00:17;7.70;94.40
49236;DHT22;35067;48.134;8.378;2023-04-15T07:01:40;7.70;92.70
49236;DHT22;35067;48.134;8.378;2023-04-15T07:03:01;7.70;93.60
49236;DHT22;35067;48.134;8.378;2023-04-15T07:04:23;7.90;93.10
49236;DHT22;35067;48.134;8.378;2023-04-15T07:05:45;8.00;94.20
49236;DHT22;35067;48.134;8.378;2023-04-15T07:07:06;8.00;92.70
49236;DHT22;35067;48.134;8.378;2023-04-15T07:08:27;8.20;91.70
49236;DHT22;35067;48.134;8.378;2023-04-15T07:09:49;8.30;92.30
49236;DHT22;35067;48.134;8.378;2023-04-15T07:11:10;8.50;92.30
49236;DHT22;35067;48.134;8.378;2023-04-15T07:12:31;8.50;90.40
49236;DHT22;35067;48.134;8.378;2023-04-15T07:13:52;8.60;89.30
49236;DHT22;35067;48.134;8.378;2023-04-15T07:15:13;8.40;89.50
49236;DHT22;35067;48.134;8.378;2023-04-15T07:16:34;8.30;90.80
49236;DHT22;35067;48.134;8.378;2023-04-15T07:17:55;8.00;91.20
49236;DHT22;35067;48.134;8.378;2023-04-15T07:19:16;7.80;92.10
49236;DHT22;35067;48.134;8.378;2023-04-15T07:20:37;7.70;93.20
49236;DHT22;35067;48.134;8.378;2023-04-15T07:21:59;7.60;96.50
49236;DHT22;35067;48.134;8.378;2023-04-15T07:23:20;7.30;97.30
49236;DHT22;35067;48.134;8.378;2023-04-15T07:24:42;7.20;98.90
49236;DHT22;35067;48.134;8.378;2023-04-15T07:26:04;7.20;99.00
49236;DHT22;35067;48.134;8.378;2023-04-15T07:27:26;7.40;97.00
49236;DHT22;35067;48.134;8.378;2023-04-15T07:28:49;7.50;96.70
49236;DHT22;35067;48.134;8.378;2023-04-15T07:30:11;7.70;95.20
49236;DHT22;35067;48.134;8.378;2023-04-15T07:31:32;7.70;94.70
49236;DHT22;35067;48.134;8.378;2023-04-15T07:32:54;8.00;95.40
49236;DHT22;35067;48.134;8.378;2023-04-15T07:34:15;8.10;94.00
49236;DHT22;35067;48.134;8.378;2023-04-15T07:35:37;8.30;94.30
49236;DHT22;35067;48.134;8.378;2023-04-15T07:36:58;8.60;93.40
49236;DHT22;35067;48.134;8.378;2023-04-15T07:38:19;8.80;92.20
49236;DHT22;35067;48.134;8.378;2023-04-15T07:39:40;9.00;91.30
49236;DHT22;35067;48.134;8.378;2023-04-15T07:41:01;9.20;90.30
49236;DHT22;35067;48.134;8.378;2023-04-15T07:42:23;9.50;86.30
49236;DHT22;35067;48.134;8.378;2023-04-15T07:43:44;9.90;83.80
49236;DHT22;35067;48.134;8.378;2023-04-15T07:45:06;10.10;82.30
49236;DHT22;35067;48.134;8.378;2023-04-15T07:46:30;10.40;80.30
49236;DHT22;35067;48.134;8.378;2023-04-15T07:47:51;10.60;76.90
49236;DHT22;35067;48.134;8.378;2023-04-15T07:49:12;10.70;76.50
49236;DHT22;35067;48.134;8.378;2023-04-15T07:50:35;10.80;74.60
49236;DHT22;35067;48.134;8.378;2023-04-15T07:51:56;10.70;66.50
49236;DHT22;35067;48.134;8.378;2023-04-15T07:53:17;10.60;63.90
49236;DHT22;35067;48.134;8.378;2023-04-15T07:54:38;10.50;62.10
49236;DHT22;35067;48.134;8.378;2023-04-15T07:56:00;10.50;62.00
49236;DHT22;35067;48.134;8.378;2023-04-15T07:57:21;10.50;56.90
49236;DHT22;35067;48.134;8.378;2023-04-15T07:58:42;10.40;53.80
49236;DHT22;35067;48.134;8.378;2023-04-15T08:00:04;10.40;53.20
49236;DHT22;35067;48.134;8.378;2023-04-15T08:01:27;10.40;51.40
49236;DHT22;35067;48.134;8.378;2023-04-15T08:02:48;10.40;50.90
49236;DHT22;35067;48.134;8.378;2023-04-15T08:04:09;10.40;51.50
49236;DHT22;35067;48.134;8.378;2023-04-15T08:05:30;10.50;52.30
49236;DHT22;35067;48.134;8.378;2023-04-15T08:06:51;10.40;51.20
49236;DHT22;35067;48.134;8.378;2023-04-15T08:08:12;10.20;50.70
49236;DHT22;35067;48.134;8.378;2023-04-15T08:09:34;10.00;52.00
49236;DHT22;35067;48.134;8.378;2023-04-15T08:10:56;9.80;52.40
49236;DHT22;35067;48.134;8.378;2023-04-15T08:12:18;9.80;53.00
49236;DHT22;35067;48.134;8.378;2023-04-15T08:13:39;9.80;53.40
49236;DHT22;35067;48.134;8.378;2023-04-15T08:15:00;9.90;53.10
49236;DHT22;35067;48.134;8.378;2023-04-15T08:16:23;9.90;53.40
49236;DHT22;35067;48.134;8.378;2023-04-15T08:17:45;10.00;52.20
49236;DHT22;35067;48.134;8.378;2023-04-15T08:19:06;10.10;52.80
49236;DHT22;35067;48.134;8.378;2023-04-15T08:20:27;10.20;53.00
49236;DHT22;35067;48.134;8.378;2023-04-15T08:21:48;10.40;52.40
49236;DHT22;35067;48.134;8.378;2023-04-15T08:23:10;10.50;52.20
49236;DHT22;35067;48.134;8.378;2023-04-15T08:24:32;10.50;51.70
49236;DHT22;35067;48.134;8.378;2023-04-15T08:25:53;10.50;52.40
49236;DHT22;35067;48.134;8.378;2023-04-15T08:27:14;10.60;52.10
49236;DHT22;35067;48.134;8.378;2023-04-15T08:28:38;10.70;50.80
49236;DHT22;35067;48.134;8.378;2023-04-15T08:29:59;10.70;50.30
49236;DHT22;35067;48.134;8.378;2023-04-15T08:31:21;10.70;50.70
49236;DHT22;35067;48.134;8.378;2023-04-15T08:32:45;10.70;50.10
49236;DHT22;35067;48.134;8.378;2023-04-15T08:34:10;10.80;51.00
49236;DHT22;35067;48.134;8.378;2023-04-15T08:35:32;10.70;49.10
49236;DHT22;35067;48.134;8.378;2023-04-15T08:36:53;10.70;49.00
49236;DHT22;35067;48.134;8.378;2023-04-15T08:38:15;10.90;47.20
49236;DHT22;35067;48.134;8.378;2023-04-15T08:39:37;11.20;48.10
49236;DHT22;35067;48.134;8.378;2023-04-15T08:41:00;11.40;47.00
49236;DHT22;35067;48.134;8.378;2023-04-15T08:42:30;11.70;47.90
49236;DHT22;35067;48.134;8.378;2023-04-15T08:44:00;12.00;46.30